sensor_id;sensor_type;location;lat;lon;timestamp;pressure;altitude;pressure_sealevel;temperature;humidity
71194;BME280;58903;47.210;8.618;2022-10-16T00:00:31;94230.41;;;22.98;46.38
71194;BME280;58903;47.210;8.618;2022-10-16T00:02:59;94229.66;;;22.97;46.56
71194;BME280;58903;47.210;8.618;2022-10-16T00:05:27;94215.94;;;22.97;46.46
71194;BME280;58903;47.210;8.618;2022-10-16T00:07:53;94229.66;;;22.97;46.46
71194;BME280;58903;47.210;8.618;2022-10-16T00:10:19;94228.19;;;22.96;46.33
71194;BME280;58903;47.210;8.618;2022-10-16T00:12:47;94224.16;;;22.97;46.28
71194;BME280;58903;47.210;8.618;2022-10-16T00:15:26;94219.19;;;22.96;46.22
71194;BME280;58903;47.210;8.618;2022-10-16T00:17:51;94223.69;;;22.93;46.40
71194;BME280;58903;47.210;8.618;2022-10-16T00:20:17;94227.66;;;22.92;46.70
71194;BME280;58903;47.210;8.618;2022-10-16T00:22:46;94230.66;;;22.94;46.63
71194;BME280;58903;47.210;8.618;2022-10-16T00:25:17;94242.38;;;22.95;46.67
71194;BME280;58903;47.210;8.618;2022-10-16T00:27:59;94234.13;;;22.95;46.40
71194;BME280;58903;47.210;8.618;2022-10-16T00:30:26;94229.91;;;22.94;46.72
71194;BME280;58903;47.210;8.618;2022-10-16T00:32:56;94227.41;;;22.96;46.30
71194;BME280;58903;47.210;8.618;2022-10-16T00:35:23;94230.16;;;22.96;46.63
71194;BME280;58903;47.210;8.618;2022-10-16T00:38:09;94225.91;;;22.95;46.40
71194;BME280;58903;47.210;8.618;2022-10-16T00:40:37;94226.41;;;22.93;46.44
71194;BME280;58903;47.210;8.618;2022-10-16T00:43:32;94233.88;;;22.93;46.02
71194;BME280;58903;47.210;8.618;2022-10-16T00:46:16;94233.13;;;22.92;46.73
71194;BME280;58903;47.210;8.618;2022-10-16T00:48:50;94236.63;;;22.93;46.37
71194;BME280;58903;47.210;8.618;2022-10-16T00:51:52;94240.13;;;22.93;46.54
71194;BME280;58903;47.210;8.618;2022-10-16T00:54:33;94239.88;;;22.91;46.30
71194;BME280;58903;47.210;8.618;2022-10-16T00:57:11;94241.38;;;22.92;46.36
71194;BME280;58903;47.210;8.618;2022-10-16T00:59:40;94240.13;;;22.93;46.41
71194;BME280;58903;47.210;8.618;2022-10-16T01:02:12;94246.84;;;22.92;46.68
71194;BME280;58903;47.210;8.618;2022-10-16T01:04:47;94250.34;;;22.93;46.49
71194;BME280;58903;47.210;8.618;2022-10-16T01:13:14;94247.84;;;22.89;46.60
71194;BME280;58903;47.210;8.618;2022-10-16T01:18:43;94248.63;;;22.90;46.90
71194;BME280;58903;47.210;8.618;2022-10-16T01:21:22;94241.13;;;22.90;46.61
71194;BME280;58903;47.210;8.618;2022-10-16T01:27:34;94251.34;;;22.90;46.43
71194;BME280;58903;47.210;8.618;2022-10-16T01:36:01;94247.34;;;22.91;46.44
71194;BME280;58903;47.210;8.618;2022-10-16T01:38:34;94249.84;;;22.89;46.42
71194;BME280;58903;47.210;8.618;2022-10-16T01:41:14;94247.09;;;22.89;46.53
71194;BME280;58903;47.210;8.618;2022-10-16T01:44:18;94255.31;;;22.89;46.62
71194;BME280;58903;47.210;8.618;2022-10-16T01:46:52;94256.09;;;22.89;46.72
71194;BME280;58903;47.210;8.618;2022-10-16T01:49:41;94252.06;;;22.90;46.62
71194;BME280;58903;47.210;8.618;2022-10-16T01:52:21;94255.31;;;22.89;46.40
71194;BME280;58903;47.210;8.618;2022-10-16T01:54:52;94269.78;;;22.89;46.78
71194;BME280;58903;47.210;8.618;2022-10-16T01:57:29;94272.28;;;22.87;46.44
71194;BME280;58903;47.210;8.618;2022-10-16T02:00:11;94262.06;;;22.88;46.81
71194;BME280;58903;47.210;8.618;2022-10-16T02:02:41;94262.06;;;22.88;46.48
71194;BME280;58903;47.210;8.618;2022-10-16T02:05:16;94262.81;;;22.88;46.91
71194;BME280;58903;47.210;8.618;2022-10-16T02:07:44;94258.56;;;22.87;46.62
71194;BME280;58903;47.210;8.618;2022-10-16T02:10:10;94274.03;;;22.90;46.19
71194;BME280;58903;47.210;8.618;2022-10-16T02:15:35;94269.53;;;22.87;46.22
71194;BME280;58903;47.210;8.618;2022-10-16T02:18:32;94277.78;;;22.87;46.36
71194;BME280;58903;47.210;8.618;2022-10-16T02:21:33;94271.53;;;22.87;46.32
71194;BME280;58903;47.210;8.618;2022-10-16T02:29:49;94265.78;;;22.85;46.53
71194;BME280;58903;47.210;8.618;2022-10-16T02:32:50;94267.31;;;22.86;46.68
71194;BME280;58903;47.210;8.618;2022-10-16T02:35:32;94264.56;;;22.86;46.72
71194;BME280;58903;47.210;8.618;2022-10-16T02:37:59;94264.56;;;22.86;46.50
71194;BME280;58903;47.210;8.618;2022-10-16T02:40:33;94266.56;;;22.85;46.63
71194;BME280;58903;47.210;8.618;2022-10-16T02:43:16;94268.03;;;22.86;46.67
71194;BME280;58903;47.210;8.618;2022-10-16T02:45:50;94268.03;;;22.86;46.20
71194;BME280;58903;47.210;8.618;2022-10-16T02:48:25;94272.78;;;22.86;46.58
71194;BME280;58903;47.210;8.618;2022-10-16T02:51:01;94272.03;;;22.85;46.73
71194;BME280;58903;47.210;8.618;2022-10-16T02:53:28;94271.28;;;22.85;46.81
71194;BME280;58903;47.210;8.618;2022-10-16T02:55:54;94267.53;;;22.82;46.57
71194;BME280;58903;47.210;8.618;2022-10-16T02:58:22;94262.28;;;22.84;46.69
71194;BME280;58903;47.210;8.618;2022-10-16T03:01:01;94258.81;;;22.84;46.42
71194;BME280;58903;47.210;8.618;2022-10-16T03:03:27;94258.06;;;22.83;46.06
71194;BME280;58903;47.210;8.618;2022-10-16T03:05:53;94252.59;;;22.83;46.51
71194;BME280;58903;47.210;8.618;2022-10-16T03:08:27;94251.84;;;22.83;46.51
71194;BME280;58903;47.210;8.618;2022-10-16T03:10:57;94246.84;;;22.81;46.37
71194;BME280;58903;47.210;8.618;2022-10-16T03:13:25;94255.31;;;22.83;46.22
71194;BME280;58903;47.210;8.618;2022-10-16T03:15:53;94253.81;;;22.82;46.64
71194;BME280;58903;47.210;8.618;2022-10-16T03:18:21;94263.31;;;22.81;46.37
71194;BME280;58903;47.210;8.618;2022-10-16T03:20:47;94249.06;;;22.77;46.80
71194;BME280;58903;47.210;8.618;2022-10-16T03:23:28;94256.06;;;22.78;46.74
71194;BME280;58903;47.210;8.618;2022-10-16T03:26:01;94256.31;;;22.80;46.48
71194;BME280;58903;47.210;8.618;2022-10-16T03:28:29;94251.59;;;22.81;46.46
71194;BME280;58903;47.210;8.618;2022-10-16T03:30:55;94250.81;;;22.80;46.70
71194;BME280;58903;47.210;8.618;2022-10-16T03:33:23;94259.81;;;22.81;46.70
71194;BME280;58903;47.210;8.618;2022-10-16T03:36:22;94259.81;;;22.81;46.52
71194;BME280;58903;47.210;8.618;2022-10-16T03:38:57;94276.25;;;22.81;46.66
71194;BME280;58903;47.210;8.618;2022-10-16T03:41:25;94285.25;;;22.81;46.32
71194;BME280;58903;47.210;8.618;2022-10-16T03:43:53;94293.47;;;22.81;46.52
71194;BME280;58903;47.210;8.618;2022-10-16T03:46:19;94288.97;;;22.78;46.46
71194;BME280;58903;47.210;8.618;2022-10-16T03:48:47;94296.22;;;22.81;46.03
71194;BME280;58903;47.210;8.618;2022-10-16T03:51:46;94291.19;;;22.80;46.44
71194;BME280;58903;47.210;8.618;2022-10-16T03:54:21;94295.44;;;22.81;46.41
71194;BME280;58903;47.210;8.618;2022-10-16T03:56:52;94287.44;;;22.77;46.56
71194;BME280;58903;47.210;8.618;2022-10-16T03:59:31;94286.47;;;22.80;46.44
71194;BME280;58903;47.210;8.618;2022-10-16T04:01:57;94291.97;;;22.80;46.55
71194;BME280;58903;47.210;8.618;2022-10-16T04:04:22;94290.47;;;22.79;46.04
71194;BME280;58903;47.210;8.618;2022-10-16T04:06:50;94298.41;;;22.77;46.45
71194;BME280;58903;47.210;8.618;2022-10-16T04:09:18;94292.47;;;22.79;46.62
71194;BME280;58903;47.210;8.618;2022-10-16T04:11:53;94287.44;;;22.77;46.37
71194;BME280;58903;47.210;8.618;2022-10-16T04:14:28;94283.97;;;22.77;46.91
71194;BME280;58903;47.210;8.618;2022-10-16T04:17:02;94285.97;;;22.76;46.98
71194;BME280;58903;47.210;8.618;2022-10-16T04:19:46;94291.69;;;22.78;46.60
71194;BME280;58903;47.210;8.618;2022-10-16T04:22:14;94292.94;;;22.77;46.89
71194;BME280;58903;47.210;8.618;2022-10-16T04:24:41;94289.22;;;22.75;46.85
71194;BME280;58903;47.210;8.618;2022-10-16T04:27:13;94301.66;;;22.76;46.70
71194;BME280;58903;47.210;8.618;2022-10-16T04:29:52;94306.63;;;22.77;46.52
71194;BME280;58903;47.210;8.618;2022-10-16T04:32:18;94312.63;;;22.76;46.88
71194;BME280;58903;47.210;8.618;2022-10-16T04:34:44;94307.16;;;22.76;46.91
71194;BME280;58903;47.210;8.618;2022-10-16T04:37:29;94304.91;;;22.74;46.58
71194;BME280;58903;47.210;8.618;2022-10-16T04:39:57;94302.16;;;22.74;46.55
71194;BME280;58903;47.210;8.618;2022-10-16T04:42:29;94309.13;;;22.75;46.56
71194;BME280;58903;47.210;8.618;2022-10-16T04:45:05;94314.63;;;22.75;46.21
71194;BME280;58903;47.210;8.618;2022-10-16T04:47:49;94320.84;;;22.76;46.58
71194;BME280;58903;47.210;8.618;2022-10-16T04:50:19;94313.13;;;22.74;46.62
71194;BME280;58903;47.210;8.618;2022-10-16T04:52:54;94315.88;;;22.74;46.82
71194;BME280;58903;47.210;8.618;2022-10-16T04:55:21;94327.59;;;22.75;46.06
71194;BME280;58903;47.210;8.618;2022-10-16T04:57:49;94322.13;;;22.75;46.67
71194;BME280;58903;47.210;8.618;2022-10-16T05:00:15;94325.81;;;22.72;46.77
71194;BME280;58903;47.210;8.618;2022-10-16T05:02:43;94322.13;;;22.75;47.05
71194;BME280;58903;47.210;8.618;2022-10-16T05:05:09;94322.59;;;22.73;46.54
71194;BME280;58903;47.210;8.618;2022-10-16T05:07:37;94324.59;;;22.73;46.77
71194;BME280;58903;47.210;8.618;2022-10-16T05:10:14;94318.63;;;22.74;46.49
71194;BME280;58903;47.210;8.618;2022-10-16T05:12:40;94318.34;;;22.72;46.78
71194;BME280;58903;47.210;8.618;2022-10-16T05:15:06;94319.13;;;22.73;46.44
71194;BME280;58903;47.210;8.618;2022-10-16T05:17:35;94318.34;;;22.72;46.91
71194;BME280;58903;47.210;8.618;2022-10-16T05:20:02;94323.84;;;22.72;46.81
71194;BME280;58903;47.210;8.618;2022-10-16T05:22:31;94316.84;;;22.71;46.97
71194;BME280;58903;47.210;8.618;2022-10-16T05:25:04;94311.13;;;22.69;46.67
71194;BME280;58903;47.210;8.618;2022-10-16T05:28:01;94315.63;;;22.72;46.49
71194;BME280;58903;47.210;8.618;2022-10-16T05:30:31;94318.34;;;22.72;46.48
71194;BME280;58903;47.210;8.618;2022-10-16T05:33:07;94316.09;;;22.71;46.85
71194;BME280;58903;47.210;8.618;2022-10-16T05:35:35;94310.13;;;22.72;46.68
71194;BME280;58903;47.210;8.618;2022-10-16T05:38:10;94318.84;;;22.71;46.68
71194;BME280;58903;47.210;8.618;2022-10-16T05:40:36;94320.84;;;22.70;46.08
71194;BME280;58903;47.210;8.618;2022-10-16T05:43:05;94317.59;;;22.72;46.64
71194;BME280;58903;47.210;8.618;2022-10-16T05:45:33;94320.84;;;22.70;46.76
71194;BME280;58903;47.210;8.618;2022-10-16T05:48:11;94321.56;;;22.71;46.45
71194;BME280;58903;47.210;8.618;2022-10-16T05:50:47;94320.59;;;22.68;46.53
71194;BME280;58903;47.210;8.618;2022-10-16T05:53:12;94318.56;;;22.69;46.53
71194;BME280;58903;47.210;8.618;2022-10-16T05:55:42;94323.34;;;22.68;46.78
71194;BME280;58903;47.210;8.618;2022-10-16T05:58:11;94325.56;;;22.70;46.49
71194;BME280;58903;47.210;8.618;2022-10-16T06:00:39;94315.13;;;22.68;46.68
71194;BME280;58903;47.210;8.618;2022-10-16T06:03:05;94320.09;;;22.70;46.83
71194;BME280;58903;47.210;8.618;2022-10-16T06:05:32;94327.56;;;22.69;46.42
71194;BME280;58903;47.210;8.618;2022-10-16T06:08:04;94322.06;;;22.69;46.52
71194;BME280;58903;47.210;8.618;2022-10-16T06:10:39;94326.81;;;22.69;46.44
71194;BME280;58903;47.210;8.618;2022-10-16T06:13:11;94324.06;;;22.69;46.47
71194;BME280;58903;47.210;8.618;2022-10-16T06:15:38;94328.81;;;22.68;46.80
71194;BME280;58903;47.210;8.618;2022-10-16T06:18:06;94332.78;;;22.67;47.11
71194;BME280;58903;47.210;8.618;2022-10-16T06:20:36;94341.78;;;22.68;46.50
71194;BME280;58903;47.210;8.618;2022-10-16T06:23:16;94349.50;;;22.69;47.13
71194;BME280;58903;47.210;8.618;2022-10-16T06:26:04;94349.22;;;22.67;46.82
71194;BME280;58903;47.210;8.618;2022-10-16T06:28:30;94345.75;;;22.67;46.63
71194;BME280;58903;47.210;8.618;2022-10-16T06:31:02;94347.00;;;22.66;46.70
71194;BME280;58903;47.210;8.618;2022-10-16T06:33:37;94355.97;;;22.66;46.83
71194;BME280;58903;47.210;8.618;2022-10-16T06:36:09;94360.19;;;22.67;46.54
71194;BME280;58903;47.210;8.618;2022-10-16T06:38:45;94361.19;;;22.64;46.57
71194;BME280;58903;47.210;8.618;2022-10-16T06:41:17;94362.69;;;22.65;46.64
71194;BME280;58903;47.210;8.618;2022-10-16T06:43:52;94366.94;;;22.66;46.46
71194;BME280;58903;47.210;8.618;2022-10-16T06:46:21;94359.94;;;22.65;46.61
71194;BME280;58903;47.210;8.618;2022-10-16T06:48:48;94367.41;;;22.65;46.83
71194;BME280;58903;47.210;8.618;2022-10-16T06:51:20;94365.69;;;22.67;46.62
71194;BME280;58903;47.210;8.618;2022-10-16T06:53:55;94363.44;;;22.66;46.60
71194;BME280;58903;47.210;8.618;2022-10-16T06:56:29;94371.41;;;22.64;46.66
71194;BME280;58903;47.210;8.618;2022-10-16T06:58:56;94378.38;;;22.65;46.62
71194;BME280;58903;47.210;8.618;2022-10-16T07:01:26;94376.41;;;22.65;46.70
71194;BME280;58903;47.210;8.618;2022-10-16T07:03:53;94378.38;;;22.65;46.91
71194;BME280;58903;47.210;8.618;2022-10-16T07:06:23;94390.84;;;22.66;46.71
71194;BME280;58903;47.210;8.618;2022-10-16T07:08:49;94382.63;;;22.66;46.66
71194;BME280;58903;47.210;8.618;2022-10-16T07:11:24;94386.59;;;22.65;46.38
71194;BME280;58903;47.210;8.618;2022-10-16T07:13:51;94392.09;;;22.65;46.93
71194;BME280;58903;47.210;8.618;2022-10-16T07:16:25;94395.59;;;22.65;46.81
71194;BME280;58903;47.210;8.618;2022-10-16T07:18:51;94405.31;;;22.66;46.46
71194;BME280;58903;47.210;8.618;2022-10-16T07:21:23;94403.31;;;22.67;46.44
71194;BME280;58903;47.210;8.618;2022-10-16T07:23:52;94406.56;;;22.65;46.46
71194;BME280;58903;47.210;8.618;2022-10-16T07:26:33;94411.53;;;22.67;46.54
71194;BME280;58903;47.210;8.618;2022-10-16T07:29:09;94419.75;;;22.67;47.28
71194;BME280;58903;47.210;8.618;2022-10-16T07:31:42;94416.28;;;22.66;47.00
71194;BME280;58903;47.210;8.618;2022-10-16T07:34:10;94421.00;;;22.66;46.62
71194;BME280;58903;47.210;8.618;2022-10-16T07:36:37;94422.25;;;22.65;46.95
71194;BME280;58903;47.210;8.618;2022-10-16T07:39:26;94424.50;;;22.66;46.70
71194;BME280;58903;47.210;8.618;2022-10-16T07:41:52;94425.75;;;22.65;47.11
71194;BME280;58903;47.210;8.618;2022-10-16T07:44:24;94427.25;;;22.66;46.77
71194;BME280;58903;47.210;8.618;2022-10-16T07:46:59;94441.69;;;22.67;47.09
71194;BME280;58903;47.210;8.618;2022-10-16T07:49:34;94440.97;;;22.66;46.77
71194;BME280;58903;47.210;8.618;2022-10-16T07:52:00;94443.97;;;22.68;47.03
71194;BME280;58903;47.210;8.618;2022-10-16T07:54:28;94441.22;;;22.68;47.26
71194;BME280;58903;47.210;8.618;2022-10-16T07:56:54;94449.44;;;22.68;46.81
71194;BME280;58903;47.210;8.618;2022-10-16T07:59:21;94451.94;;;22.66;46.94
71194;BME280;58903;47.210;8.618;2022-10-16T08:01:49;94459.16;;;22.69;47.01
71194;BME280;58903;47.210;8.618;2022-10-16T08:04:17;94469.63;;;22.71;46.29
71194;BME280;58903;47.210;8.618;2022-10-16T08:06:43;94471.41;;;22.74;46.63
71194;BME280;58903;47.210;8.618;2022-10-16T08:09:22;94477.63;;;22.74;47.12
71194;BME280;58903;47.210;8.618;2022-10-16T08:11:49;94479.63;;;22.74;46.62
71194;BME280;58903;47.210;8.618;2022-10-16T08:14:17;94470.16;;;22.75;46.72
71194;BME280;58903;47.210;8.618;2022-10-16T08:16:43;94474.13;;;22.74;46.75
71194;BME280;58903;47.210;8.618;2022-10-16T08:19:14;94473.38;;;22.73;46.63
71194;BME280;58903;47.210;8.618;2022-10-16T08:22:00;94477.63;;;22.74;46.32
71194;BME280;58903;47.210;8.618;2022-10-16T08:24:27;94478.41;;;22.75;46.47
71194;BME280;58903;47.210;8.618;2022-10-16T08:26:56;94485.09;;;22.74;46.76
71194;BME280;58903;47.210;8.618;2022-10-16T08:29:28;94487.09;;;22.73;46.06
71194;BME280;58903;47.210;8.618;2022-10-16T08:31:54;94493.59;;;22.76;46.40
71194;BME280;58903;47.210;8.618;2022-10-16T08:34:31;94501.31;;;22.77;46.65
71194;BME280;58903;47.210;8.618;2022-10-16T08:37:03;94499.34;;;22.78;46.39
71194;BME280;58903;47.210;8.618;2022-10-16T08:39:30;94489.38;;;22.75;46.62
71194;BME280;58903;47.210;8.618;2022-10-16T08:48:52;94500.81;;;22.73;46.47
71194;BME280;58903;47.210;8.618;2022-10-16T08:51:30;94506.53;;;22.75;46.08
71194;BME280;58903;47.210;8.618;2022-10-16T08:56:42;94512.78;;;22.76;46.56
71194;BME280;58903;47.210;8.618;2022-10-16T08:59:10;94509.28;;;22.75;46.81
71194;BME280;58903;47.210;8.618;2022-10-16T09:02:01;94507.31;;;22.76;46.99
71194;BME280;58903;47.210;8.618;2022-10-16T09:10:29;94508.31;;;22.78;46.30
71194;BME280;58903;47.210;8.618;2022-10-16T09:13:23;94504.56;;;22.76;47.12
71194;BME280;58903;47.210;8.618;2022-10-16T09:18:54;94514.78;;;22.75;46.55
71194;BME280;58903;47.210;8.618;2022-10-16T09:21:25;94507.31;;;22.76;46.50
71194;BME280;58903;47.210;8.618;2022-10-16T09:23:58;94508.75;;;22.71;46.50
71194;BME280;58903;47.210;8.618;2022-10-16T09:26:53;94513.50;;;22.71;46.66
71194;BME280;58903;47.210;8.618;2022-10-16T09:29:21;94525.22;;;22.71;46.68
71194;BME280;58903;47.210;8.618;2022-10-16T09:31:52;94518.72;;;22.69;47.10
71194;BME280;58903;47.210;8.618;2022-10-16T09:34:52;94519.22;;;22.67;46.96
71194;BME280;58903;47.210;8.618;2022-10-16T09:37:23;94516.22;;;22.65;47.14
71194;BME280;58903;47.210;8.618;2022-10-16T09:39:52;94520.94;;;22.65;46.89
71194;BME280;58903;47.210;8.618;2022-10-16T09:42:25;94526.41;;;22.65;46.29
71194;BME280;58903;47.210;8.618;2022-10-16T09:44:53;94515.44;;;22.65;46.85
71194;BME280;58903;47.210;8.618;2022-10-16T09:47:31;94516.47;;;22.67;46.60
71194;BME280;58903;47.210;8.618;2022-10-16T09:50:28;94518.44;;;22.67;46.74
71194;BME280;58903;47.210;8.618;2022-10-16T09:53:12;94521.94;;;22.67;47.28
71194;BME280;58903;47.210;8.618;2022-10-16T09:55:52;94514.47;;;22.68;47.12
71194;BME280;58903;47.210;8.618;2022-10-16T09:58:30;94515.25;;;22.68;46.78
71194;BME280;58903;47.210;8.618;2022-10-16T10:00:56;94517.97;;;22.68;46.77
71194;BME280;58903;47.210;8.618;2022-10-16T10:03:38;94523.72;;;22.70;47.16
71194;BME280;58903;47.210;8.618;2022-10-16T10:06:23;94525.72;;;22.70;47.03
71194;BME280;58903;47.210;8.618;2022-10-16T10:08:59;94533.19;;;22.69;46.92
71194;BME280;58903;47.210;8.618;2022-10-16T10:11:59;94529.94;;;22.71;47.00
71194;BME280;58903;47.210;8.618;2022-10-16T10:17:28;94519.47;;;22.69;47.04
71194;BME280;58903;47.210;8.618;2022-10-16T10:19:56;94526.47;;;22.70;46.85
71194;BME280;58903;47.210;8.618;2022-10-16T10:30:56;94514.03;;;22.75;46.91
71194;BME280;58903;47.210;8.618;2022-10-16T10:33:53;94517.25;;;22.73;47.20
71194;BME280;58903;47.210;8.618;2022-10-16T10:36:39;94514.03;;;22.75;46.62
71194;BME280;58903;47.210;8.618;2022-10-16T10:45:27;94512.28;;;22.77;46.72
71194;BME280;58903;47.210;8.618;2022-10-16T10:50:45;94504.56;;;22.76;46.98
71194;BME280;58903;47.210;8.618;2022-10-16T10:59:16;94504.06;;;22.77;47.05
71194;BME280;58903;47.210;8.618;2022-10-16T11:08:06;94490.13;;;22.81;47.03
71194;BME280;58903;47.210;8.618;2022-10-16T11:10:47;94492.38;;;22.82;47.36
71194;BME280;58903;47.210;8.618;2022-10-16T11:16:37;94496.38;;;22.81;47.05
71194;BME280;58903;47.210;8.618;2022-10-16T11:27:25;94491.41;;;22.85;46.64
71194;BME280;58903;47.210;8.618;2022-10-16T11:30:00;94484.22;;;22.88;46.53
71194;BME280;58903;47.210;8.618;2022-10-16T11:32:35;94483.44;;;22.87;46.95
71194;BME280;58903;47.210;8.618;2022-10-16T11:35:44;94479.72;;;22.90;47.13
71194;BME280;58903;47.210;8.618;2022-10-16T11:49:36;94463.50;;;22.92;47.16
71194;BME280;58903;47.210;8.618;2022-10-16T11:55:20;94467.06;;;22.98;47.26
71194;BME280;58903;47.210;8.618;2022-10-16T11:58:00;94470.06;;;23.00;47.22
71194;BME280;58903;47.210;8.618;2022-10-16T12:00:47;94477.03;;;23.01;46.93
71194;BME280;58903;47.210;8.618;2022-10-16T12:06:27;94463.09;;;23.05;47.15
71194;BME280;58903;47.210;8.618;2022-10-16T12:09:27;94469.59;;;23.07;46.97
71194;BME280;58903;47.210;8.618;2022-10-16T12:12:03;94465.84;;;23.10;47.06
71194;BME280;58903;47.210;8.618;2022-10-16T12:14:39;94463.88;;;23.11;47.11
71194;BME280;58903;47.210;8.618;2022-10-16T12:20:20;94456.91;;;23.15;47.35
71194;BME280;58903;47.210;8.618;2022-10-16T12:23:16;94457.16;;;23.17;46.93
71194;BME280;58903;47.210;8.618;2022-10-16T12:25:54;94460.16;;;23.19;47.04
71194;BME280;58903;47.210;8.618;2022-10-16T12:28:32;94457.66;;;23.21;47.08
71194;BME280;58903;47.210;8.618;2022-10-16T12:31:02;94453.69;;;23.22;47.22
71194;BME280;58903;47.210;8.618;2022-10-16T12:33:33;94450.44;;;23.24;47.10
71194;BME280;58903;47.210;8.618;2022-10-16T12:36:39;94448.97;;;23.29;47.05
71194;BME280;58903;47.210;8.618;2022-10-16T12:39:23;94444.22;;;23.29;47.73
71194;BME280;58903;47.210;8.618;2022-10-16T12:45:29;94441.00;;;23.31;47.05
71194;BME280;58903;47.210;8.618;2022-10-16T12:48:21;94444.78;;;23.33;47.18
71194;BME280;58903;47.210;8.618;2022-10-16T12:50:48;94437.53;;;23.36;47.28
71194;BME280;58903;47.210;8.618;2022-10-16T12:53:26;94441.78;;;23.37;47.18
71194;BME280;58903;47.210;8.618;2022-10-16T13:10:45;94453.03;;;23.50;46.97
71194;BME280;58903;47.210;8.618;2022-10-16T13:13:47;94453.28;;;23.52;47.49
71194;BME280;58903;47.210;8.618;2022-10-16T13:31:01;94452.59;;;23.68;47.03
71194;BME280;58903;47.210;8.618;2022-10-16T13:33:52;94451.84;;;23.73;46.71
71194;BME280;58903;47.210;8.618;2022-10-16T13:36:42;94445.34;;;23.76;46.86
71194;BME280;58903;47.210;8.618;2022-10-16T13:39:28;94453.63;;;23.81;46.98
71194;BME280;58903;47.210;8.618;2022-10-16T13:42:26;94457.34;;;23.84;46.59
71194;BME280;58903;47.210;8.618;2022-10-16T13:44:55;94459.13;;;23.87;46.79
71194;BME280;58903;47.210;8.618;2022-10-16T13:47:29;94450.38;;;23.88;46.71
71194;BME280;58903;47.210;8.618;2022-10-16T13:52:28;94458.13;;;23.95;46.48
71194;BME280;58903;47.210;8.618;2022-10-16T13:54:55;94456.38;;;23.98;46.05
71194;BME280;58903;47.210;8.618;2022-10-16T13:57:24;94472.59;;;24.02;46.73
71194;BME280;58903;47.210;8.618;2022-10-16T13:59:50;94470.63;;;24.02;46.68
71194;BME280;58903;47.210;8.618;2022-10-16T14:02:34;94472.66;;;24.07;46.64
71194;BME280;58903;47.210;8.618;2022-10-16T14:05:04;94472.16;;;24.09;45.99
71194;BME280;58903;47.210;8.618;2022-10-16T14:07:34;94471.63;;;24.10;46.00
71194;BME280;58903;47.210;8.618;2022-10-16T14:10:18;94467.16;;;24.13;45.67
71194;BME280;58903;47.210;8.618;2022-10-16T14:12:59;94467.41;;;24.15;46.67
71194;BME280;58903;47.210;8.618;2022-10-16T14:15:27;94471.16;;;24.17;46.92
71194;BME280;58903;47.210;8.618;2022-10-16T14:17:58;94478.41;;;24.20;46.39
71194;BME280;58903;47.210;8.618;2022-10-16T14:20:32;94476.66;;;24.23;46.13
71194;BME280;58903;47.210;8.618;2022-10-16T14:26:23;94476.38;;;24.32;46.21
71194;BME280;58903;47.210;8.618;2022-10-16T14:29:08;94475.91;;;24.33;45.76
71194;BME280;58903;47.210;8.618;2022-10-16T14:31:36;94481.16;;;24.37;45.40
71194;BME280;58903;47.210;8.618;2022-10-16T14:34:23;94473.91;;;24.39;46.21
71194;BME280;58903;47.210;8.618;2022-10-16T14:37:25;94484.63;;;24.43;46.02
71194;BME280;58903;47.210;8.618;2022-10-16T14:40:03;94475.91;;;24.44;45.93
71194;BME280;58903;47.210;8.618;2022-10-16T14:42:44;94480.91;;;24.46;45.92
71194;BME280;58903;47.210;8.618;2022-10-16T14:45:28;94478.91;;;24.46;46.02
71194;BME280;58903;47.210;8.618;2022-10-16T14:48:16;94477.63;;;24.47;45.78
71194;BME280;58903;47.210;8.618;2022-10-16T14:50:51;94476.88;;;24.47;45.66
71194;BME280;58903;47.210;8.618;2022-10-16T14:53:18;94476.41;;;24.48;45.25
71194;BME280;58903;47.210;8.618;2022-10-16T14:55:47;94484.13;;;24.50;45.57
71194;BME280;58903;47.210;8.618;2022-10-16T14:58:22;94480.88;;;24.51;45.54
71194;BME280;58903;47.210;8.618;2022-10-16T15:00:58;94483.88;;;24.53;45.66
71194;BME280;58903;47.210;8.618;2022-10-16T15:03:24;94485.38;;;24.54;45.73
71194;BME280;58903;47.210;8.618;2022-10-16T15:05:50;94488.38;;;24.56;45.67
71194;BME280;58903;47.210;8.618;2022-10-16T15:08:18;94492.13;;;24.59;45.46
71194;BME280;58903;47.210;8.618;2022-10-16T15:10:44;94493.13;;;24.61;45.57
71194;BME280;58903;47.210;8.618;2022-10-16T15:13:14;94503.63;;;24.63;45.41
71194;BME280;58903;47.210;8.618;2022-10-16T15:15:43;94508.13;;;24.66;45.27
71194;BME280;58903;47.210;8.618;2022-10-16T15:18:13;94499.13;;;24.65;45.56
71194;BME280;58903;47.210;8.618;2022-10-16T15:20:49;94507.13;;;24.69;45.65
71194;BME280;58903;47.210;8.618;2022-10-16T15:23:19;94508.38;;;24.73;45.07
71194;BME280;58903;47.210;8.618;2022-10-16T15:25:51;94513.88;;;24.73;45.37
71194;BME280;58903;47.210;8.618;2022-10-16T15:28:24;94501.91;;;24.77;45.65
71194;BME280;58903;47.210;8.618;2022-10-16T15:31:00;94509.88;;;24.80;45.44
71194;BME280;58903;47.210;8.618;2022-10-16T15:33:27;94513.63;;;24.83;45.43
71194;BME280;58903;47.210;8.618;2022-10-16T15:36:01;94520.91;;;24.86;45.61
71194;BME280;58903;47.210;8.618;2022-10-16T15:38:34;94518.88;;;24.86;44.96
71194;BME280;58903;47.210;8.618;2022-10-16T15:41:00;94523.38;;;24.89;44.90
71194;BME280;58903;47.210;8.618;2022-10-16T15:43:34;94522.13;;;24.90;44.94
71194;BME280;58903;47.210;8.618;2022-10-16T15:46:04;94533.88;;;24.91;45.10
71194;BME280;58903;47.210;8.618;2022-10-16T15:48:36;94528.88;;;24.89;45.47
71194;BME280;58903;47.210;8.618;2022-10-16T15:51:05;94528.13;;;24.89;45.43
71194;BME280;58903;47.210;8.618;2022-10-16T15:53:43;94529.88;;;24.86;45.81
71194;BME280;58903;47.210;8.618;2022-10-16T15:56:12;94533.16;;;24.90;45.43
71194;BME280;58903;47.210;8.618;2022-10-16T15:58:43;94538.13;;;24.86;45.13
71194;BME280;58903;47.210;8.618;2022-10-16T16:01:10;94540.63;;;24.84;44.91
71194;BME280;58903;47.210;8.618;2022-10-16T16:03:38;94540.91;;;24.81;45.35
71194;BME280;58903;47.210;8.618;2022-10-16T16:06:11;94534.91;;;24.77;45.24